KAR3477 UUEE-VTSP
Flight info
| Callsign | KAR3477 |
|---|---|
| Flight time | N/A |
| Altitude | 35000 |
| Route | TOGMO M56 DENUD M161 MILSO M875 INDUD/K0895F370 M875 AMDAR/N0483F370 M875 TAPIS L509 NONIB T400 SULOM A466 DPN L759 TATUX/N0485F390 L759 SATVA |
| Aircraft | B772/H-SDE2E3FGHIJ5LORVWXY/LB1D1 |
Departure
| Time | 2026-05-04 21:48 |
|---|---|
| Airport | Sheremetyevo International Airport (UUEE) |
Arrival
| Time | N/A |
|---|---|
| Airport | Phuket International Airport (VTSP) |
| Time | Latitude | Longitude | Altitude | Speed | Heading |
|---|---|---|---|---|---|
| 2026-05-04 21:06 | 55.97807 | 37.41019 | 644 ft | 0 kts | 76° |
| 2026-05-04 21:33 | 55.97805 | 37.41010 | 644 ft | 2 kts | 76° |
| 2026-05-04 21:33 | 55.97802 | 37.40984 | 644 ft | 2 kts | 76° |
| 2026-05-04 21:34 | 55.97798 | 37.40958 | 644 ft | 2 kts | 76° |
| 2026-05-04 21:34 | 55.97794 | 37.40932 | 644 ft | 2 kts | 76° |
| 2026-05-04 21:34 | 55.97794 | 37.40906 | 644 ft | 2 kts | 113° |
| 2026-05-04 21:34 | 55.97803 | 37.40885 | 644 ft | 2 kts | 149° |
| 2026-05-04 21:35 | 55.97817 | 37.40876 | 644 ft | 1 kts | 168° |
| 2026-05-04 21:35 | 55.97824 | 37.40874 | 644 ft | 0 kts | 166° |
| 2026-05-04 21:39 | 55.97818 | 37.40876 | 644 ft | 1 kts | 165° |
| 2026-05-04 21:39 | 55.97782 | 37.40893 | 644 ft | 9 kts | 165° |
| 2026-05-04 21:40 | 55.97720 | 37.40922 | 644 ft | 7 kts | 164° |
| 2026-05-04 21:40 | 55.97655 | 37.40990 | 644 ft | 13 kts | 115° |
| 2026-05-04 21:40 | 55.97588 | 37.41141 | 644 ft | 9 kts | 162° |
| 2026-05-04 21:40 | 55.97552 | 37.41187 | 644 ft | 8 kts | 120° |
| 2026-05-04 21:41 | 55.97558 | 37.41341 | 644 ft | 16 kts | 73° |
| 2026-05-04 21:41 | 55.97590 | 37.41546 | 644 ft | 17 kts | 74° |
| 2026-05-04 21:41 | 55.97621 | 37.41745 | 644 ft | 16 kts | 74° |
| 2026-05-04 21:41 | 55.97648 | 37.41934 | 644 ft | 15 kts | 75° |
| 2026-05-04 21:42 | 55.97656 | 37.41994 | 644 ft | 15 kts | 75° |
| 2026-05-04 21:42 | 55.97683 | 37.42175 | 644 ft | 14 kts | 74° |
| 2026-05-04 21:42 | 55.97709 | 37.42348 | 644 ft | 14 kts | 75° |
| 2026-05-04 21:42 | 55.97734 | 37.42512 | 644 ft | 13 kts | 75° |
| 2026-05-04 21:43 | 55.97758 | 37.42673 | 644 ft | 13 kts | 75° |
| 2026-05-04 21:43 | 55.97781 | 37.42828 | 644 ft | 12 kts | 75° |
| 2026-05-04 21:43 | 55.97803 | 37.42979 | 644 ft | 12 kts | 75° |
| 2026-05-04 21:43 | 55.97825 | 37.43124 | 644 ft | 11 kts | 75° |
| 2026-05-04 21:44 | 55.97846 | 37.43268 | 644 ft | 12 kts | 75° |
| 2026-05-04 21:44 | 55.97871 | 37.43434 | 644 ft | 15 kts | 75° |
| 2026-05-04 21:44 | 55.97900 | 37.43627 | 644 ft | 17 kts | 75° |
| 2026-05-04 21:44 | 55.97932 | 37.43843 | 644 ft | 10 kts | 75° |
| 2026-05-04 21:45 | 55.97944 | 37.43924 | 644 ft | 6 kts | 75° |
| 2026-05-04 21:45 | 55.97936 | 37.44001 | 644 ft | 6 kts | 129° |
| 2026-05-04 21:45 | 55.97896 | 37.44044 | 644 ft | 6 kts | 156° |
| 2026-05-04 21:45 | 55.97849 | 37.44068 | 644 ft | 7 kts | 167° |
| 2026-05-04 21:46 | 55.97805 | 37.44060 | 644 ft | 6 kts | 215° |
| 2026-05-04 21:46 | 55.97779 | 37.43990 | 644 ft | 6 kts | 246° |
| 2026-05-04 21:46 | 55.97772 | 37.43952 | 644 ft | 0 kts | 254° |
| 2026-05-04 21:47 | 55.97746 | 37.43792 | 644 ft | 43 kts | 253° |
| 2026-05-04 21:47 | 55.97606 | 37.42852 | 644 ft | 109 kts | 254° |
| 2026-05-04 21:47 | 55.97357 | 37.41204 | 646 ft | 163 kts | 253° |
| 2026-05-04 21:47 | 55.97009 | 37.39057 | 956 ft | 187 kts | 251° |
| 2026-05-04 21:48 | 55.96652 | 37.36944 | 1785 ft | 179 kts | 250° |
| 2026-05-04 21:48 | 55.96298 | 37.34800 | 2119 ft | 187 kts | 252° |
| 2026-05-04 21:48 | 55.95935 | 37.32452 | 2258 ft | 202 kts | 253° |
| 2026-05-04 21:48 | 55.95540 | 37.29902 | 2411 ft | 219 kts | 253° |
| 2026-05-04 21:49 | 55.95116 | 37.27169 | 2591 ft | 235 kts | 253° |
| 2026-05-04 21:49 | 55.94670 | 37.24291 | 2797 ft | 248 kts | 253° |
| 2026-05-04 21:49 | 55.94206 | 37.21306 | 3138 ft | 254 kts | 253° |
| 2026-05-04 21:49 | 55.93775 | 37.18539 | 3519 ft | 256 kts | 253° |
| 2026-05-04 21:50 | 55.93280 | 37.15362 | 3968 ft | 257 kts | 253° |
| 2026-05-04 21:50 | 55.92801 | 37.12297 | 4397 ft | 259 kts | 253° |
| 2026-05-04 21:50 | 55.92312 | 37.09173 | 4825 ft | 260 kts | 254° |
| 2026-05-04 21:50 | 55.91828 | 37.06082 | 5242 ft | 261 kts | 255° |
| 2026-05-04 21:51 | 55.91655 | 37.02872 | 5612 ft | 264 kts | 278° |
| 2026-05-04 21:51 | 55.92319 | 36.99782 | 6004 ft | 269 kts | 304° |
| 2026-05-04 21:51 | 55.93646 | 36.97444 | 6403 ft | 272 kts | 320° |
| 2026-05-04 21:51 | 55.95180 | 36.95458 | 6807 ft | 274 kts | 323° |
| 2026-05-04 21:52 | 55.96755 | 36.93514 | 7215 ft | 275 kts | 324° |
| 2026-05-04 21:52 | 55.98511 | 36.92120 | 7566 ft | 282 kts | 348° |
| 2026-05-04 21:52 | 56.00463 | 36.92218 | 7925 ft | 288 kts | 14° |
| 2026-05-04 21:52 | 56.02296 | 36.93690 | 8312 ft | 292 kts | 28° |
| 2026-05-04 21:53 | 56.04028 | 36.95624 | 8700 ft | 293 kts | 31° |
| 2026-05-04 21:53 | 56.05722 | 36.97611 | 9080 ft | 294 kts | 31° |
| 2026-05-04 21:53 | 56.07438 | 36.99625 | 9468 ft | 295 kts | 31° |
| 2026-05-04 21:53 | 56.09159 | 37.01642 | 9849 ft | 296 kts | 31° |
| 2026-05-04 21:54 | 56.10795 | 37.03710 | 10197 ft | 299 kts | 41° |
| 2026-05-04 21:54 | 56.11987 | 37.06729 | 10524 ft | 305 kts | 65° |
| 2026-05-04 21:54 | 56.12698 | 37.10413 | 10586 ft | 319 kts | 73° |
| 2026-05-04 21:54 | 56.13268 | 37.14336 | 10765 ft | 327 kts | 74° |
| 2026-05-04 21:55 | 56.13817 | 37.18268 | 11144 ft | 328 kts | 74° |
| 2026-05-04 21:55 | 56.14376 | 37.22258 | 11550 ft | 329 kts | 74° |
| 2026-05-04 21:55 | 56.14894 | 37.26270 | 11937 ft | 331 kts | 82° |
| 2026-05-04 21:55 | 56.14746 | 37.30378 | 12292 ft | 337 kts | 105° |
| 2026-05-04 21:56 | 56.13738 | 37.34199 | 12676 ft | 341 kts | 126° |
| 2026-05-04 21:56 | 56.12034 | 37.37151 | 13067 ft | 343 kts | 148° |
| 2026-05-04 21:56 | 56.09941 | 37.39099 | 13480 ft | 344 kts | 156° |
| 2026-05-04 21:56 | 56.07738 | 37.40853 | 13996 ft | 343 kts | 155° |
| 2026-05-04 21:57 | 56.05614 | 37.42572 | 14764 ft | 335 kts | 155° |
| 2026-05-04 21:57 | 56.03494 | 37.44319 | 15311 ft | 335 kts | 155° |
| 2026-05-04 21:57 | 56.01393 | 37.46067 | 15743 ft | 338 kts | 154° |
| 2026-05-04 21:57 | 55.99267 | 37.47843 | 16195 ft | 341 kts | 154° |
| 2026-05-04 21:58 | 55.97159 | 37.49714 | 16636 ft | 343 kts | 147° |
| 2026-05-04 21:58 | 55.95321 | 37.52439 | 17049 ft | 346 kts | 130° |
| 2026-05-04 21:58 | 55.93986 | 37.56027 | 17473 ft | 348 kts | 114° |
| 2026-05-04 21:58 | 55.93245 | 37.60139 | 17903 ft | 350 kts | 102° |
| 2026-05-04 21:59 | 55.92742 | 37.64412 | 18353 ft | 352 kts | 101° |
| 2026-05-04 21:59 | 55.92267 | 37.68697 | 18789 ft | 354 kts | 101° |
| 2026-05-04 21:59 | 55.91728 | 37.73042 | 19207 ft | 356 kts | 108° |
| 2026-05-04 21:59 | 55.90727 | 37.77106 | 19614 ft | 359 kts | 118° |
| 2026-05-04 22:00 | 55.89531 | 37.81014 | 20031 ft | 361 kts | 119° |
| 2026-05-04 22:00 | 55.88303 | 37.84954 | 20442 ft | 363 kts | 119° |
| 2026-05-04 22:00 | 55.86957 | 37.88741 | 20824 ft | 366 kts | 128° |
| 2026-05-04 22:00 | 55.85233 | 37.92030 | 21205 ft | 368 kts | 139° |
| 2026-05-04 22:01 | 55.83155 | 37.94694 | 21596 ft | 370 kts | 150° |
| 2026-05-04 22:01 | 55.80781 | 37.96612 | 21987 ft | 373 kts | 162° |
| 2026-05-04 22:01 | 55.78254 | 37.97651 | 22369 ft | 375 kts | 173° |
| 2026-05-04 22:01 | 55.75655 | 37.97783 | 22748 ft | 377 kts | 185° |
| 2026-05-04 22:02 | 55.73070 | 37.96989 | 23119 ft | 379 kts | 196° |
| 2026-05-04 22:02 | 55.70614 | 37.95299 | 23486 ft | 381 kts | 207° |
| 2026-05-04 22:02 | 55.68243 | 37.93152 | 23850 ft | 383 kts | 203° |
| 2026-05-04 22:02 | 55.65754 | 37.91580 | 24197 ft | 385 kts | 195° |
| 2026-05-04 22:03 | 55.63129 | 37.90552 | 24540 ft | 388 kts | 189° |
| 2026-05-04 22:03 | 55.60386 | 37.89936 | 24589 ft | 399 kts | 185° |
| 2026-05-04 22:03 | 55.57612 | 37.89650 | 24599 ft | 410 kts | 181° |
| 2026-05-04 22:03 | 55.54710 | 37.89626 | 24606 ft | 421 kts | 179° |
| 2026-05-04 22:04 | 55.51733 | 37.89783 | 24615 ft | 432 kts | 178° |
| 2026-05-04 22:04 | 55.48668 | 37.90060 | 24621 ft | 442 kts | 176° |
| 2026-05-04 22:04 | 55.45585 | 37.90415 | 24635 ft | 451 kts | 176° |
| 2026-05-04 22:04 | 55.42427 | 37.90927 | 24783 ft | 457 kts | 171° |
| 2026-05-04 22:05 | 55.39351 | 37.92200 | 25062 ft | 459 kts | 162° |
| 2026-05-04 22:05 | 55.36398 | 37.94343 | 25378 ft | 460 kts | 153° |
| 2026-05-04 22:05 | 55.33629 | 37.97264 | 25679 ft | 462 kts | 146° |
| 2026-05-04 22:05 | 55.30973 | 38.00383 | 25961 ft | 464 kts | 146° |
| 2026-05-04 22:06 | 55.28297 | 38.03541 | 26235 ft | 466 kts | 146° |
| 2026-05-04 22:06 | 55.25587 | 38.06732 | 26508 ft | 468 kts | 146° |
| 2026-05-04 22:06 | 55.22901 | 38.09886 | 26773 ft | 470 kts | 146° |
| 2026-05-04 22:06 | 55.20164 | 38.13093 | 27037 ft | 471 kts | 146° |
| 2026-05-04 22:07 | 55.17454 | 38.16263 | 27291 ft | 473 kts | 146° |
| 2026-05-04 22:07 | 55.14697 | 38.19480 | 27543 ft | 475 kts | 146° |
| 2026-05-04 22:07 | 55.11943 | 38.22688 | 27789 ft | 477 kts | 146° |
| 2026-05-04 22:07 | 55.09185 | 38.25896 | 28029 ft | 479 kts | 146° |
| 2026-05-04 22:08 | 55.06427 | 38.29097 | 28264 ft | 480 kts | 146° |
| 2026-05-04 22:08 | 55.03609 | 38.32362 | 28497 ft | 482 kts | 146° |
| 2026-05-04 22:08 | 55.00824 | 38.35583 | 28723 ft | 484 kts | 146° |
| 2026-05-04 22:08 | 54.98191 | 38.38623 | 28931 ft | 485 kts | 146° |
| 2026-05-04 22:09 | 54.95360 | 38.41886 | 29150 ft | 487 kts | 146° |
| 2026-05-04 22:09 | 54.92513 | 38.45163 | 29364 ft | 488 kts | 146° |
| 2026-05-04 22:09 | 54.89675 | 38.48422 | 29572 ft | 490 kts | 146° |
| 2026-05-04 22:09 | 54.86976 | 38.51517 | 29767 ft | 491 kts | 146° |
| 2026-05-04 22:10 | 54.84145 | 38.54759 | 29967 ft | 493 kts | 146° |
| 2026-05-04 22:10 | 54.81275 | 38.58038 | 30163 ft | 494 kts | 146° |
| 2026-05-04 22:10 | 54.78377 | 38.61345 | 30388 ft | 495 kts | 146° |
| 2026-05-04 22:10 | 54.75517 | 38.64596 | 30679 ft | 494 kts | 147° |
| 2026-05-04 22:11 | 54.72575 | 38.67714 | 30988 ft | 493 kts | 149° |
| 2026-05-04 22:11 | 54.69636 | 38.70751 | 31283 ft | 492 kts | 149° |
| 2026-05-04 22:11 | 54.66686 | 38.73796 | 31566 ft | 491 kts | 149° |
| 2026-05-04 22:11 | 54.63768 | 38.76808 | 31844 ft | 491 kts | 149° |
| 2026-05-04 22:12 | 54.60828 | 38.79844 | 32128 ft | 490 kts | 149° |
| 2026-05-04 22:12 | 54.57908 | 38.82866 | 32412 ft | 490 kts | 149° |
| 2026-05-04 22:12 | 54.54987 | 38.85887 | 32695 ft | 489 kts | 149° |
| 2026-05-04 22:12 | 54.52088 | 38.88884 | 32974 ft | 488 kts | 149° |
| 2026-05-04 22:13 | 54.49186 | 38.91879 | 33252 ft | 488 kts | 149° |
| 2026-05-04 22:13 | 54.46295 | 38.94859 | 33524 ft | 487 kts | 149° |
| 2026-05-04 22:13 | 54.43374 | 38.97866 | 33801 ft | 486 kts | 149° |
| 2026-05-04 22:13 | 54.40493 | 39.00827 | 34059 ft | 486 kts | 149° |
| 2026-05-04 22:14 | 54.37581 | 39.03818 | 34306 ft | 485 kts | 148° |
| 2026-05-04 22:14 | 54.34854 | 39.07174 | 34516 ft | 485 kts | 139° |
| 2026-05-04 22:14 | 54.32426 | 39.11311 | 34735 ft | 485 kts | 130° |
| 2026-05-04 22:14 | 54.30446 | 39.15982 | 34960 ft | 484 kts | 121° |
| 2026-05-04 22:15 | 54.28926 | 39.21080 | 35066 ft | 485 kts | 112° |
| 2026-05-04 22:15 | 54.27349 | 39.32248 | 35071 ft | 484 kts | 94° |
| 2026-05-04 22:16 | 54.26543 | 39.43699 | 35076 ft | 484 kts | 101° |
| 2026-05-04 22:16 | 54.24929 | 39.54876 | 35076 ft | 484 kts | 106° |
| 2026-05-04 22:17 | 54.22841 | 39.65787 | 35075 ft | 484 kts | 110° |
| 2026-05-04 22:17 | 54.20514 | 39.76478 | 35076 ft | 484 kts | 111° |
| 2026-05-04 22:18 | 54.18026 | 39.87185 | 35075 ft | 484 kts | 112° |
| 2026-05-04 22:18 | 54.15474 | 39.97779 | 35075 ft | 484 kts | 112° |
| 2026-05-04 22:19 | 54.12863 | 40.08393 | 35075 ft | 484 kts | 113° |
| 2026-05-04 22:19 | 54.10627 | 40.19246 | 35077 ft | 484 kts | 106° |
| 2026-05-04 22:20 | 54.08744 | 40.30250 | 35075 ft | 484 kts | 106° |
| 2026-05-04 22:20 | 54.06848 | 40.41215 | 35075 ft | 484 kts | 106° |
| 2026-05-04 22:21 | 54.04933 | 40.52187 | 35075 ft | 484 kts | 106° |
| 2026-05-04 22:21 | 54.03000 | 40.63174 | 35075 ft | 484 kts | 106° |
| 2026-05-04 22:22 | 54.01062 | 40.74110 | 35075 ft | 484 kts | 107° |
| 2026-05-04 22:22 | 53.99103 | 40.85089 | 35075 ft | 484 kts | 107° |
| 2026-05-04 22:23 | 53.97133 | 40.96068 | 35075 ft | 484 kts | 107° |
| 2026-05-04 22:23 | 53.95183 | 41.06966 | 35075 ft | 484 kts | 105° |
| 2026-05-04 22:24 | 53.93379 | 41.18050 | 35075 ft | 484 kts | 105° |
| 2026-05-04 22:24 | 53.91584 | 41.29031 | 35075 ft | 484 kts | 105° |
| 2026-05-04 22:25 | 53.89773 | 41.40004 | 35075 ft | 484 kts | 105° |
| 2026-05-04 22:25 | 53.87940 | 41.51016 | 35075 ft | 484 kts | 105° |
| 2026-05-04 22:26 | 53.86103 | 41.61971 | 35075 ft | 484 kts | 105° |
| 2026-05-04 22:26 | 53.84258 | 41.72902 | 35075 ft | 484 kts | 106° |
| 2026-05-04 22:27 | 53.82391 | 41.83860 | 35075 ft | 484 kts | 106° |
| 2026-05-04 22:27 | 53.80505 | 41.94833 | 35075 ft | 484 kts | 106° |
| 2026-05-04 22:28 | 53.78612 | 42.05783 | 35075 ft | 484 kts | 106° |
| 2026-05-04 22:28 | 53.76719 | 42.16666 | 35075 ft | 484 kts | 106° |
| 2026-05-04 22:29 | 53.74813 | 42.27557 | 35075 ft | 484 kts | 106° |
| 2026-05-04 22:29 | 53.72890 | 42.38478 | 35075 ft | 484 kts | 106° |
| 2026-05-04 22:30 | 53.70962 | 42.49368 | 35075 ft | 484 kts | 106° |
| 2026-05-04 22:30 | 53.69017 | 42.60281 | 35075 ft | 484 kts | 106° |
| 2026-05-04 22:31 | 53.67099 | 42.71149 | 35075 ft | 484 kts | 105° |
| 2026-05-04 22:31 | 53.65396 | 42.82116 | 35075 ft | 484 kts | 105° |
| 2026-05-04 22:32 | 53.63678 | 42.93127 | 35075 ft | 484 kts | 105° |
| 2026-05-04 22:32 | 53.61957 | 43.04028 | 35075 ft | 484 kts | 105° |
| 2026-05-04 22:33 | 53.60204 | 43.15032 | 35075 ft | 484 kts | 105° |
| 2026-05-04 22:33 | 53.58445 | 43.25988 | 35075 ft | 484 kts | 105° |
| 2026-05-04 22:34 | 53.56690 | 43.36842 | 35075 ft | 484 kts | 105° |
| 2026-05-04 22:34 | 53.54910 | 43.47769 | 35075 ft | 484 kts | 105° |
| 2026-05-04 22:35 | 53.53126 | 43.58657 | 35075 ft | 484 kts | 105° |
| 2026-05-04 22:35 | 53.51331 | 43.69533 | 35075 ft | 484 kts | 105° |
| 2026-05-04 22:36 | 53.49517 | 43.80460 | 35075 ft | 484 kts | 105° |
| 2026-05-04 22:36 | 53.47704 | 43.91314 | 35075 ft | 484 kts | 105° |
| 2026-05-04 22:37 | 53.45879 | 44.02164 | 35075 ft | 484 kts | 105° |
| 2026-05-04 22:37 | 53.44037 | 44.13056 | 35075 ft | 484 kts | 105° |
| 2026-05-04 22:38 | 53.42186 | 44.23931 | 35075 ft | 484 kts | 105° |
| 2026-05-04 22:38 | 53.40335 | 44.34731 | 35075 ft | 484 kts | 105° |
| 2026-05-04 22:39 | 53.38467 | 44.45575 | 35075 ft | 484 kts | 105° |
| 2026-05-04 22:39 | 53.36591 | 44.56394 | 35075 ft | 484 kts | 105° |
| 2026-05-04 22:40 | 53.34697 | 44.67249 | 35075 ft | 484 kts | 107° |
| 2026-05-04 22:40 | 53.32795 | 44.78077 | 35075 ft | 484 kts | 107° |
| 2026-05-04 22:41 | 53.30888 | 44.88876 | 35075 ft | 484 kts | 107° |
| 2026-05-04 22:41 | 53.28984 | 44.99585 | 35075 ft | 484 kts | 107° |
| 2026-05-04 22:42 | 53.27004 | 45.10366 | 35076 ft | 483 kts | 109° |
| 2026-05-04 22:42 | 53.24680 | 45.20970 | 35075 ft | 484 kts | 110° |
| 2026-05-04 22:43 | 53.22370 | 45.31457 | 35075 ft | 484 kts | 110° |
| 2026-05-04 22:43 | 53.20050 | 45.41995 | 35075 ft | 484 kts | 110° |
| 2026-05-04 22:44 | 53.17719 | 45.52566 | 35075 ft | 484 kts | 110° |
| 2026-05-04 22:44 | 53.15391 | 45.63085 | 35076 ft | 484 kts | 110° |
| 2026-05-04 22:45 | 53.13053 | 45.73605 | 35075 ft | 484 kts | 110° |
| 2026-05-04 22:45 | 53.09530 | 45.89412 | 35075 ft | 484 kts | 110° |
| 2026-05-04 22:46 | 53.07206 | 45.99890 | 35075 ft | 484 kts | 110° |
| 2026-05-04 22:46 | 53.04861 | 46.10401 | 35075 ft | 484 kts | 110° |
| 2026-05-04 22:47 | 53.02510 | 46.20886 | 35075 ft | 484 kts | 110° |
| 2026-05-04 22:47 | 53.00149 | 46.31361 | 35075 ft | 484 kts | 110° |
| 2026-05-04 22:48 | 52.97781 | 46.41815 | 35075 ft | 484 kts | 110° |
| 2026-05-04 22:48 | 52.95394 | 46.52298 | 35075 ft | 484 kts | 110° |
| 2026-05-04 22:49 | 52.93022 | 46.62670 | 35075 ft | 484 kts | 110° |
| 2026-05-04 22:49 | 52.90619 | 46.73123 | 35075 ft | 484 kts | 111° |
| 2026-05-04 22:50 | 52.88219 | 46.83514 | 35075 ft | 484 kts | 111° |
| 2026-05-04 22:50 | 52.85806 | 46.93908 | 35075 ft | 484 kts | 111° |
| 2026-05-04 22:51 | 52.83381 | 47.04305 | 35075 ft | 484 kts | 111° |
| 2026-05-04 22:51 | 52.80976 | 47.14724 | 35076 ft | 484 kts | 109° |
| 2026-05-04 22:52 | 52.78758 | 47.25223 | 35075 ft | 484 kts | 109° |
| 2026-05-04 22:52 | 52.76522 | 47.35747 | 35075 ft | 484 kts | 109° |
| 2026-05-04 22:53 | 52.74287 | 47.46173 | 35075 ft | 484 kts | 109° |
| 2026-05-04 22:53 | 52.72026 | 47.56654 | 35075 ft | 484 kts | 109° |
| 2026-05-04 22:54 | 52.69756 | 47.67148 | 35075 ft | 484 kts | 110° |
| 2026-05-04 22:54 | 52.67495 | 47.77568 | 35075 ft | 484 kts | 110° |
| 2026-05-04 22:55 | 52.65214 | 47.88023 | 35075 ft | 484 kts | 110° |
| 2026-05-04 22:55 | 52.62921 | 47.98479 | 35075 ft | 484 kts | 110° |
| 2026-05-04 22:56 | 52.60638 | 48.08833 | 35075 ft | 484 kts | 110° |
| 2026-05-04 22:56 | 52.58326 | 48.19241 | 35075 ft | 484 kts | 110° |
| 2026-05-04 22:57 | 52.55996 | 48.29672 | 35075 ft | 484 kts | 110° |
| 2026-05-04 22:57 | 52.53671 | 48.40028 | 35075 ft | 484 kts | 110° |
| 2026-05-04 22:58 | 52.51338 | 48.50370 | 35075 ft | 484 kts | 110° |
| 2026-05-04 22:58 | 52.48987 | 48.60738 | 35075 ft | 484 kts | 110° |
| 2026-05-04 22:59 | 52.46640 | 48.71040 | 35075 ft | 484 kts | 111° |
| 2026-05-04 22:59 | 52.44273 | 48.81379 | 35075 ft | 484 kts | 111° |
| 2026-05-04 23:00 | 52.41909 | 48.91656 | 35075 ft | 484 kts | 111° |
| 2026-05-04 23:00 | 52.39525 | 49.01971 | 35075 ft | 484 kts | 111° |
| 2026-05-04 23:01 | 52.37130 | 49.12280 | 35075 ft | 484 kts | 111° |
| 2026-05-04 23:01 | 52.34723 | 49.22564 | 35075 ft | 484 kts | 111° |
| 2026-05-04 23:02 | 52.32310 | 49.32811 | 35075 ft | 484 kts | 111° |
| 2026-05-04 23:02 | 52.29883 | 49.43072 | 35075 ft | 484 kts | 111° |
| 2026-05-04 23:03 | 52.27453 | 49.53307 | 35075 ft | 484 kts | 111° |
| 2026-05-04 23:03 | 52.25013 | 49.63545 | 35075 ft | 484 kts | 111° |
| 2026-05-04 23:04 | 52.22566 | 49.73767 | 35075 ft | 484 kts | 111° |
| 2026-05-04 23:04 | 52.20106 | 49.83992 | 35075 ft | 484 kts | 111° |
| 2026-05-04 23:05 | 52.17634 | 49.94219 | 35075 ft | 484 kts | 111° |
| 2026-05-04 23:05 | 52.15170 | 50.04365 | 35075 ft | 484 kts | 111° |
| 2026-05-04 23:06 | 52.12679 | 50.14574 | 35075 ft | 484 kts | 111° |
| 2026-05-04 23:06 | 52.10197 | 50.24698 | 35075 ft | 484 kts | 111° |
| 2026-05-04 23:07 | 52.07695 | 50.34858 | 35075 ft | 484 kts | 111° |
| 2026-05-04 23:07 | 52.05192 | 50.44977 | 35075 ft | 484 kts | 111° |
| 2026-05-04 23:08 | 52.02679 | 50.55092 | 35075 ft | 484 kts | 111° |
| 2026-05-04 23:08 | 52.00156 | 50.65196 | 35075 ft | 484 kts | 112° |
| 2026-05-04 23:09 | 51.97353 | 50.75098 | 35076 ft | 484 kts | 122° |
| 2026-05-04 23:09 | 51.93040 | 50.83397 | 35076 ft | 484 kts | 139° |
| 2026-05-04 23:10 | 51.87386 | 50.89251 | 35073 ft | 484 kts | 156° |
| 2026-05-04 23:10 | 51.81105 | 50.92547 | 35076 ft | 484 kts | 164° |
| 2026-05-04 23:11 | 51.74636 | 50.95428 | 35075 ft | 484 kts | 165° |
| 2026-05-04 23:11 | 51.68197 | 50.98555 | 35073 ft | 484 kts | 157° |
| 2026-05-04 23:12 | 51.62376 | 51.03912 | 35077 ft | 484 kts | 147° |
| 2026-05-04 23:12 | 51.56750 | 51.09890 | 35075 ft | 484 kts | 146° |
| 2026-05-04 23:13 | 51.51157 | 51.15814 | 35075 ft | 484 kts | 146° |
| 2026-05-04 23:13 | 51.45540 | 51.21742 | 35075 ft | 484 kts | 146° |
| 2026-05-04 23:14 | 51.39942 | 51.27706 | 35075 ft | 484 kts | 146° |
| 2026-05-04 23:14 | 51.34349 | 51.33691 | 35075 ft | 484 kts | 146° |
| 2026-05-04 23:15 | 51.28727 | 51.39684 | 35075 ft | 484 kts | 146° |
| 2026-05-04 23:15 | 51.23168 | 51.45591 | 35075 ft | 484 kts | 146° |
| 2026-05-04 23:16 | 51.17540 | 51.51556 | 35074 ft | 484 kts | 145° |
| 2026-05-04 23:16 | 51.12609 | 51.58743 | 35076 ft | 484 kts | 130° |
| 2026-05-04 23:17 | 51.08323 | 51.66990 | 35075 ft | 484 kts | 130° |
| 2026-05-04 23:17 | 51.04066 | 51.75199 | 35075 ft | 484 kts | 130° |
| 2026-05-04 23:18 | 50.99780 | 51.83431 | 35075 ft | 484 kts | 130° |
| 2026-05-04 23:18 | 50.95476 | 51.91668 | 35075 ft | 484 kts | 130° |
| 2026-05-04 23:19 | 50.91175 | 51.99869 | 35075 ft | 484 kts | 130° |
| 2026-05-04 23:19 | 50.86876 | 52.08041 | 35075 ft | 484 kts | 130° |
| 2026-05-04 23:20 | 50.82562 | 52.16213 | 35075 ft | 484 kts | 130° |
| 2026-05-04 23:20 | 50.78250 | 52.24355 | 35075 ft | 484 kts | 130° |
| 2026-05-04 23:21 | 50.73940 | 52.32469 | 35075 ft | 484 kts | 130° |
| 2026-05-04 23:21 | 50.69600 | 52.40612 | 35075 ft | 484 kts | 130° |
| 2026-05-04 23:22 | 50.65284 | 52.48735 | 35075 ft | 484 kts | 129° |
| 2026-05-04 23:22 | 50.60982 | 52.56836 | 35075 ft | 484 kts | 129° |
| 2026-05-04 23:23 | 50.56671 | 52.64925 | 35075 ft | 484 kts | 129° |
| 2026-05-04 23:23 | 50.52322 | 52.73060 | 35075 ft | 484 kts | 130° |
| 2026-05-04 23:24 | 50.47987 | 52.81141 | 35075 ft | 484 kts | 130° |
| 2026-05-04 23:24 | 50.43673 | 52.89159 | 35075 ft | 484 kts | 130° |
| 2026-05-04 23:25 | 50.39339 | 52.97189 | 35075 ft | 484 kts | 130° |
| 2026-05-04 23:25 | 50.34995 | 53.05210 | 35075 ft | 484 kts | 130° |
| 2026-05-04 23:26 | 50.30618 | 53.13269 | 35075 ft | 484 kts | 130° |
| 2026-05-04 23:26 | 50.26284 | 53.21224 | 35075 ft | 484 kts | 130° |
| 2026-05-04 23:27 | 50.21919 | 53.29210 | 35075 ft | 484 kts | 130° |
| 2026-05-04 23:27 | 50.17548 | 53.37183 | 35075 ft | 484 kts | 130° |
| 2026-05-04 23:28 | 50.13176 | 53.45134 | 35075 ft | 484 kts | 130° |
| 2026-05-04 23:28 | 50.08790 | 53.53086 | 35075 ft | 484 kts | 130° |
| 2026-05-04 23:29 | 50.04413 | 53.60995 | 35075 ft | 484 kts | 130° |
| 2026-05-04 23:29 | 50.00011 | 53.68927 | 35075 ft | 484 kts | 131° |
| 2026-05-04 23:30 | 49.95632 | 53.76794 | 35075 ft | 484 kts | 131° |
| 2026-05-04 23:30 | 49.91231 | 53.84676 | 35075 ft | 484 kts | 131° |
| 2026-05-04 23:31 | 49.86803 | 53.92582 | 35075 ft | 484 kts | 131° |
| 2026-05-04 23:31 | 49.82385 | 54.00447 | 35075 ft | 484 kts | 131° |
| 2026-05-04 23:32 | 49.77990 | 54.08247 | 35075 ft | 484 kts | 131° |
| 2026-05-04 23:32 | 49.73550 | 54.16103 | 35075 ft | 484 kts | 131° |
| 2026-05-04 23:33 | 49.69131 | 54.23898 | 35075 ft | 484 kts | 131° |
| 2026-05-04 23:33 | 49.64705 | 54.31682 | 35075 ft | 484 kts | 131° |
| 2026-05-04 23:34 | 49.60276 | 54.39449 | 35075 ft | 484 kts | 131° |
| 2026-05-04 23:34 | 49.55809 | 54.47258 | 35075 ft | 484 kts | 131° |
| 2026-05-04 23:35 | 49.51366 | 54.55004 | 35075 ft | 484 kts | 131° |
| 2026-05-04 23:35 | 49.46904 | 54.62758 | 35075 ft | 484 kts | 131° |
| 2026-05-04 23:36 | 49.42466 | 54.70448 | 35075 ft | 484 kts | 132° |
| 2026-05-04 23:36 | 49.37988 | 54.78184 | 35075 ft | 484 kts | 132° |
| 2026-05-04 23:37 | 49.33524 | 54.85874 | 35075 ft | 484 kts | 132° |
| 2026-05-04 23:37 | 49.29069 | 54.93524 | 35075 ft | 484 kts | 132° |
| 2026-05-04 23:38 | 49.24588 | 55.01196 | 35075 ft | 484 kts | 132° |
| 2026-05-04 23:38 | 49.20100 | 55.08858 | 35075 ft | 484 kts | 132° |
| 2026-05-04 23:39 | 49.15606 | 55.16509 | 35075 ft | 484 kts | 132° |
| 2026-05-04 23:39 | 49.11106 | 55.24149 | 35075 ft | 484 kts | 132° |
| 2026-05-04 23:40 | 49.06595 | 55.31785 | 35075 ft | 484 kts | 132° |
| 2026-05-04 23:40 | 49.02119 | 55.39340 | 35075 ft | 484 kts | 132° |
| 2026-05-04 23:41 | 48.97592 | 55.46959 | 35075 ft | 484 kts | 132° |
| 2026-05-04 23:41 | 48.93095 | 55.54507 | 35075 ft | 484 kts | 132° |
| 2026-05-04 23:42 | 48.88551 | 55.62110 | 35075 ft | 484 kts | 131° |
| 2026-05-04 23:42 | 48.84036 | 55.69642 | 35075 ft | 484 kts | 133° |
| 2026-05-04 23:43 | 48.79505 | 55.77172 | 35075 ft | 484 kts | 133° |
| 2026-05-04 23:43 | 48.74965 | 55.84694 | 35075 ft | 484 kts | 133° |
| 2026-05-04 23:44 | 48.70439 | 55.92171 | 35075 ft | 484 kts | 133° |
| 2026-05-04 23:44 | 48.65872 | 55.99696 | 35075 ft | 484 kts | 133° |
| 2026-05-04 23:45 | 48.61319 | 56.07173 | 35075 ft | 484 kts | 133° |
| 2026-05-04 23:45 | 48.56772 | 56.14620 | 35075 ft | 484 kts | 133° |
| 2026-05-04 23:46 | 48.52199 | 56.22087 | 35075 ft | 484 kts | 133° |
| 2026-05-04 23:46 | 48.47629 | 56.29525 | 35075 ft | 484 kts | 133° |
| 2026-05-04 23:47 | 48.43067 | 56.36930 | 35075 ft | 484 kts | 133° |
| 2026-05-04 23:47 | 48.38511 | 56.44304 | 35075 ft | 484 kts | 133° |
| 2026-05-04 23:48 | 48.33907 | 56.51736 | 35075 ft | 484 kts | 133° |
| 2026-05-04 23:48 | 48.29335 | 56.59104 | 35075 ft | 484 kts | 133° |
| 2026-05-04 23:49 | 48.24735 | 56.66499 | 35075 ft | 484 kts | 133° |
| 2026-05-04 23:49 | 48.20149 | 56.73849 | 35075 ft | 484 kts | 133° |
| 2026-05-04 23:50 | 48.15564 | 56.81178 | 35075 ft | 484 kts | 133° |
| 2026-05-04 23:50 | 48.10947 | 56.88536 | 35075 ft | 484 kts | 133° |
| 2026-05-04 23:51 | 48.06343 | 56.95854 | 35075 ft | 484 kts | 133° |
| 2026-05-04 23:51 | 48.01746 | 57.03140 | 35075 ft | 484 kts | 133° |
| 2026-05-04 23:52 | 47.97134 | 57.10427 | 35075 ft | 484 kts | 133° |
| 2026-05-04 23:52 | 47.92515 | 57.17707 | 35075 ft | 484 kts | 133° |
| 2026-05-04 23:53 | 47.87890 | 57.24977 | 35075 ft | 484 kts | 133° |
| 2026-05-04 23:53 | 47.83271 | 57.32217 | 35075 ft | 484 kts | 133° |
| 2026-05-04 23:54 | 47.78612 | 57.39497 | 35075 ft | 484 kts | 133° |
| 2026-05-04 23:54 | 47.73978 | 57.46720 | 35075 ft | 484 kts | 133° |
| 2026-05-04 23:55 | 47.69362 | 57.53897 | 35075 ft | 484 kts | 133° |
| 2026-05-04 23:56 | 47.62379 | 57.64713 | 35075 ft | 484 kts | 133° |
| 2026-05-04 23:56 | 47.57738 | 57.71876 | 35075 ft | 484 kts | 134° |
| 2026-05-04 23:57 | 47.53075 | 57.79055 | 35075 ft | 484 kts | 134° |
| 2026-05-04 23:57 | 47.48398 | 57.86235 | 35075 ft | 484 kts | 134° |
| 2026-05-04 23:58 | 47.43749 | 57.93354 | 35075 ft | 484 kts | 134° |
| 2026-05-04 23:58 | 47.39092 | 58.00463 | 35075 ft | 484 kts | 134° |
| 2026-05-04 23:59 | 47.34413 | 58.07589 | 35075 ft | 484 kts | 134° |
| 2026-05-04 23:59 | 47.29735 | 58.14692 | 35075 ft | 484 kts | 134° |
| 2026-05-05 00:00 | 47.25044 | 58.21793 | 35075 ft | 484 kts | 134° |